Time;durP1;ratioP1;P1;durP2;ratioP2;P2;SDS_P1;SDS_P2;PMS_P1;PMS_P2;Temp;Humidity;BMP_temperature;BMP_pressure;BME280_temperature;BME280_humidity;BME280_pressure;Samples;Min_cycle;Max_cycle;Signal;HPM_P1;HPM_P2
2023/09/21 00:01:13;;;;;;;3.80;1.80;;;21.40;1.00;;;;;;5098331;28;20185;-82
2023/09/21 00:03:40;;;;;;;3.47;1.70;;;21.40;1.00;;;;;;5095506;28;20189;-82
2023/09/21 00:06:06;;;;;;;3.43;1.90;;;21.40;1.00;;;;;;5094944;28;20656;-84
2023/09/21 00:08:33;;;;;;;3.67;1.90;;;21.40;1.00;;;;;;5095218;28;20171;-83
2023/09/21 00:10:59;;;;;;;4.97;2.00;;;21.40;1.00;;;;;;5110827;28;20234;-81
2023/09/21 00:13:28;;;;;;;5.13;1.93;;;21.40;1.00;;;;;;5116393;28;20174;-81
2023/09/21 00:16:00;;;;;;;4.27;1.90;;;21.40;1.00;;;;;;5114532;28;20202;-82
2023/09/21 00:18:27;;;;;;;3.13;2.03;;;21.50;1.00;;;;;;5116456;28;20169;-83
2023/09/21 00:20:53;;;;;;;3.73;1.57;;;21.50;1.00;;;;;;5111565;28;20197;-86
2023/09/21 00:23:26;;;;;;;3.63;1.80;;;21.50;1.00;;;;;;5094162;28;20535;-81
2023/09/21 00:25:57;;;;;;;4.87;1.87;;;21.50;1.00;;;;;;5095422;28;20183;-82
2023/09/21 00:28:24;;;;;;;3.87;1.73;;;21.50;1.00;;;;;;5094753;28;20287;-82
2023/09/21 00:30:53;;;;;;;4.63;1.70;;;21.50;1.00;;;;;;5093606;28;20190;-82
2023/09/21 00:33:20;;;;;;;4.50;2.00;;;21.50;1.00;;;;;;5095389;28;20211;-82
2023/09/21 00:35:46;;;;;;;3.93;2.07;;;21.50;1.00;;;;;;5095720;28;20218;-82
2023/09/21 00:38:15;;;;;;;3.53;1.90;;;21.50;1.00;;;;;;5095631;28;20170;-84
2023/09/21 00:40:44;;;;;;;7.07;2.20;;;21.50;1.00;;;;;;5113789;28;20250;-82
2023/09/21 00:43:20;;;;;;;2.60;1.73;;;21.50;1.00;;;;;;5115847;28;20209;-82
2023/09/21 00:45:50;;;;;;;4.30;1.73;;;21.50;1.00;;;;;;5114107;28;20584;-82
2023/09/21 00:48:21;;;;;;;3.47;1.70;;;21.50;1.00;;;;;;5112959;28;20218;-82
2023/09/21 00:50:49;;;;;;;4.23;2.00;;;21.50;1.00;;;;;;5114722;28;20186;-83
2023/09/21 00:53:16;;;;;;;5.13;1.90;;;21.50;1.00;;;;;;5113511;28;20202;-83
2023/09/21 00:55:48;;;;;;;4.77;2.00;;;21.50;1.00;;;;;;5094727;28;20265;-82
2023/09/21 00:58:15;;;;;;;6.80;2.07;;;21.50;1.00;;;;;;5093224;28;20205;-83
2023/09/21 01:00:41;;;;;;;3.60;2.00;;;21.50;1.00;;;;;;5094658;28;20179;-82
2023/09/21 01:03:14;;;;;;;4.53;2.27;;;21.50;1.00;;;;;;5094764;28;20170;-83
2023/09/21 01:05:45;;;;;;;5.50;3.20;;;21.50;1.00;;;;;;5093468;28;20175;-84
2023/09/21 01:08:13;;;;;;;5.67;3.33;;;21.50;1.00;;;;;;5101874;28;20170;-80
2023/09/21 01:10:49;;;;;;;5.00;2.10;;;21.50;1.00;;;;;;5118009;28;20547;-83
2023/09/21 01:13:17;;;;;;;4.70;1.90;;;21.50;1.00;;;;;;5117448;28;20174;-83
2023/09/21 01:15:48;;;;;;;4.40;1.90;;;21.50;1.00;;;;;;5116915;28;20213;-86
2023/09/21 01:18:19;;;;;;;3.57;2.30;;;21.50;1.00;;;;;;5117431;28;20246;-85
2023/09/21 01:20:47;;;;;;;3.70;1.73;;;21.40;1.00;;;;;;5120004;28;20166;-87
2023/09/21 01:23:18;;;;;;;5.43;1.87;;;21.40;1.00;;;;;;5118839;28;20173;-86
2023/09/21 01:25:46;;;;;;;4.37;1.97;;;21.40;1.00;;;;;;5118761;28;20170;-87
2023/09/21 01:28:18;;;;;;;4.57;1.90;;;21.30;1.00;;;;;;5118347;28;20253;-86
2023/09/21 01:30:44;;;;;;;6.67;2.40;;;21.30;1.00;;;;;;5117128;28;20200;-86
2023/09/21 01:33:15;;;;;;;5.43;1.80;;;21.30;1.00;;;;;;5120013;28;20224;-85
2023/09/21 01:35:44;;;;;;;3.77;2.00;;;21.30;1.00;;;;;;5126593;28;20206;-87
2023/09/21 01:38:11;;;;;;;5.03;1.80;;;21.30;1.00;;;;;;5116925;28;20650;-86
2023/09/21 01:40:38;;;;;;;4.87;1.97;;;21.30;1.00;;;;;;5117476;28;20179;-85
2023/09/21 01:43:08;;;;;;;4.97;1.90;;;21.20;1.00;;;;;;5120212;28;20169;-86
2023/09/21 01:45:39;;;;;;;3.90;1.90;;;21.20;1.00;;;;;;5120031;28;20163;-86
2023/09/21 01:48:09;;;;;;;4.33;2.00;;;21.20;1.00;;;;;;5122754;28;20256;-84
2023/09/21 01:50:47;;;;;;;4.20;2.13;;;21.30;1.00;;;;;;5116052;28;20213;-82
2023/09/21 01:53:17;;;;;;;2.90;1.80;;;21.20;1.00;;;;;;5100416;28;20214;-86
2023/09/21 01:55:43;;;;;;;5.33;1.77;;;21.20;1.00;;;;;;5097746;28;20591;-89
2023/09/21 01:58:12;;;;;;;3.37;1.80;;;21.10;1.00;;;;;;5100494;28;20167;-84
2023/09/21 02:00:43;;;;;;;3.33;2.00;;;21.20;1.00;;;;;;5118289;28;20191;-87
2023/09/21 02:03:12;;;;;;;4.10;1.80;;;21.10;1.00;;;;;;5117657;28;20159;-82
2023/09/21 02:05:42;;;;;;;5.13;2.20;;;21.10;1.00;;;;;;5118659;28;20174;-86
2023/09/21 02:08:10;;;;;;;3.33;1.90;;;21.10;1.00;;;;;;5099675;28;20170;-81
2023/09/21 02:10:38;;;;;;;4.30;1.90;;;21.10;1.00;;;;;;5100563;28;20185;-81
2023/09/21 02:13:07;;;;;;;3.80;2.17;;;21.10;1.00;;;;;;5104701;28;20234;-81
2023/09/21 02:15:37;;;;;;;4.90;2.20;;;21.10;1.00;;;;;;5101772;28;20221;-81
2023/09/21 02:18:04;;;;;;;4.37;2.13;;;21.10;1.00;;;;;;5113959;28;20182;-84
2023/09/21 02:20:31;;;;;;;3.17;1.90;;;21.10;1.00;;;;;;5117990;28;20181;-82
2023/09/21 02:23:00;;;;;;;4.47;2.00;;;21.10;1.00;;;;;;5112227;28;20216;-82
2023/09/21 02:25:30;;;;;;;2.80;1.90;;;21.20;1.00;;;;;;5105416;28;20615;-82
2023/09/21 02:27:56;;;;;;;3.00;1.90;;;21.10;1.00;;;;;;5117527;28;20260;-81
2023/09/21 02:30:23;;;;;;;5.30;2.10;;;21.10;1.00;;;;;;5115677;28;20261;-82
2023/09/21 02:32:53;;;;;;;6.17;2.43;;;21.10;1.00;;;;;;5113783;28;20204;-83
2023/09/21 02:35:26;;;;;;;3.80;2.20;;;21.20;1.00;;;;;;5095333;28;20201;-81
2023/09/21 02:37:54;;;;;;;3.77;2.17;;;21.20;1.00;;;;;;5096769;28;20170;-84
2023/09/21 02:40:22;;;;;;;4.37;2.00;;;21.10;1.00;;;;;;5096699;28;20539;-82
2023/09/21 02:42:50;;;;;;;5.87;2.40;;;21.00;1.00;;;;;;5104912;28;20175;-81
2023/09/21 02:45:25;;;;;;;6.43;2.20;;;21.00;1.00;;;;;;5115816;28;20245;-82
2023/09/21 02:47:54;;;;;;;5.07;2.10;;;21.00;1.00;;;;;;5115348;28;20173;-83
2023/09/21 02:50:25;;;;;;;5.40;2.10;;;21.00;1.00;;;;;;5116060;28;20270;-83
2023/09/21 02:53:06;;;;;;;3.77;2.27;;;20.90;1.00;;;;;;5106339;28;20660;-83
2023/09/21 02:55:33;;;;;;;4.77;2.00;;;20.90;1.00;;;;;;5096553;28;20679;-81
2023/09/21 02:58:04;;;;;;;4.70;2.20;;;20.90;1.00;;;;;;5096326;28;20176;-83
2023/09/21 03:00:34;;;;;;;3.63;1.80;;;20.90;1.00;;;;;;5093851;28;20181;-81
2023/09/21 03:03:04;;;;;;;7.00;2.23;;;20.80;1.00;;;;;;5093624;28;20676;-80
2023/09/21 03:05:32;;;;;;;3.63;2.00;;;20.80;1.00;;;;;;5097024;28;20272;-88
2023/09/21 03:08:09;;;;;;;6.07;2.07;;;20.80;1.00;;;;;;5095382;28;20196;-80
2023/09/21 03:10:37;;;;;;;5.87;2.03;;;20.80;1.00;;;;;;5098177;28;20177;-83
2023/09/21 03:13:04;;;;;;;3.83;1.90;;;20.90;1.00;;;;;;5116091;28;20557;-83
2023/09/21 03:15:30;;;;;;;4.40;1.83;;;20.80;1.00;;;;;;5116415;28;20224;-81
2023/09/21 03:17:56;;;;;;;3.70;1.73;;;20.80;1.00;;;;;;5117010;28;20197;-83
2023/09/21 03:20:35;;;;;;;4.77;2.20;;;20.80;1.00;;;;;;5118280;28;20165;-83
2023/09/21 03:23:05;;;;;;;4.87;1.87;;;20.80;1.00;;;;;;5094315;28;20205;-82
2023/09/21 03:25:34;;;;;;;3.20;2.00;;;20.80;1.00;;;;;;5096519;28;20167;-83
2023/09/21 03:28:15;;;;;;;3.03;1.87;;;20.80;1.00;;;;;;5095474;28;20174;-83
2023/09/21 03:30:47;;;;;;;5.07;2.10;;;20.80;1.00;;;;;;5104816;28;20694;-82
2023/09/21 03:33:14;;;;;;;5.13;2.27;;;20.70;1.00;;;;;;5115678;28;20193;-85
2023/09/21 03:35:40;;;;;;;4.23;2.30;;;20.70;1.00;;;;;;5114060;28;20231;-82
2023/09/21 03:38:10;;;;;;;3.23;2.03;;;20.70;1.00;;;;;;5114968;28;20176;-81
2023/09/21 03:40:36;;;;;;;5.07;2.17;;;20.70;1.00;;;;;;5108403;28;20179;-84
2023/09/21 03:43:23;;;;;;;3.33;2.03;;;20.60;1.00;;;;;;5095270;28;20181;-84
2023/09/21 03:45:49;;;;;;;2.97;1.90;;;20.50;1.00;;;;;;5094478;28;20618;-82
2023/09/21 03:48:16;;;;;;;4.83;2.13;;;20.40;1.00;;;;;;5094585;28;20170;-84
2023/09/21 03:50:42;;;;;;;3.90;1.90;;;20.30;1.00;;;;;;5094803;28;20255;-82
2023/09/21 03:53:09;;;;;;;4.40;2.13;;;20.20;1.00;;;;;;5101170;28;20188;-82
2023/09/21 03:55:35;;;;;;;4.90;2.23;;;20.10;1.00;;;;;;5095085;28;20626;-81
2023/09/21 03:58:03;;;;;;;7.90;2.37;;;20.00;1.00;;;;;;5095055;28;20173;-81
2023/09/21 04:03:05;;;;;;;5.30;2.57;;;19.90;1.00;;;;;;5115331;28;20194;-83
2023/09/21 04:05:33;;;;;;;7.70;2.83;;;19.80;4.30;;;;;;5116676;28;20616;-82
2023/09/21 04:07:59;;;;;;;5.47;2.30;;;19.70;9.20;;;;;;5115720;28;20593;-81
2023/09/21 04:10:26;;;;;;;4.17;2.30;;;19.70;12.80;;;;;;5113200;28;20198;-82
2023/09/21 04:12:55;;;;;;;4.37;2.07;;;19.60;19.80;;;;;;5106965;28;20174;-81
2023/09/21 04:15:23;;;;;;;4.57;2.40;;;19.50;24.50;;;;;;5095097;28;20592;-82
2023/09/21 04:17:49;;;;;;;3.30;2.07;;;19.50;27.00;;;;;;5095211;28;20182;-82
2023/09/21 04:20:16;;;;;;;4.23;2.30;;;19.50;28.20;;;;;;5094203;28;20637;-83
2023/09/21 04:22:43;;;;;;;3.63;2.10;;;19.40;29.50;;;;;;5112937;28;20162;-81
2023/09/21 04:25:14;;;;;;;4.40;2.20;;;19.40;31.60;;;;;;5115007;28;20167;-83
2023/09/21 04:27:48;;;;;;;4.63;2.27;;;19.30;33.60;;;;;;5117138;28;20206;-87
2023/09/21 04:30:16;;;;;;;4.60;2.63;;;19.30;38.50;;;;;;5123347;28;20166;-86
2023/09/21 04:32:45;;;;;;;4.73;2.40;;;19.30;41.70;;;;;;5115441;28;20170;-85
2023/09/21 04:35:12;;;;;;;5.17;2.37;;;19.30;43.60;;;;;;5117834;28;20272;-85
2023/09/21 04:37:38;;;;;;;5.80;2.60;;;19.20;42.70;;;;;;5104078;28;20208;-87
2023/09/21 04:40:09;;;;;;;4.73;2.10;;;19.10;42.80;;;;;;5108045;28;20194;-84
2023/09/21 04:42:40;;;;;;;3.60;2.10;;;19.10;44.80;;;;;;5109537;28;20175;-84
2023/09/21 04:45:11;;;;;;;5.17;2.30;;;19.10;45.40;;;;;;5104635;28;20178;-85
2023/09/21 04:47:37;;;;;;;5.00;2.40;;;18.90;50.40;;;;;;5096435;28;20219;-87
2023/09/21 04:50:03;;;;;;;4.90;2.73;;;18.90;57.50;;;;;;5112545;28;20182;-88
2023/09/21 04:52:34;;;;;;;3.80;2.47;;;18.80;62.50;;;;;;5120582;28;20240;-87
2023/09/21 04:55:04;;;;;;;3.67;2.63;;;18.70;65.30;;;;;;5118969;28;20194;-88
2023/09/21 04:57:32;;;;;;;5.03;2.80;;;18.60;70.10;;;;;;5117351;28;20188;-85
2023/09/21 04:59:58;;;;;;;6.03;2.70;;;18.50;76.00;;;;;;5114050;28;20167;-88
2023/09/21 05:02:24;;;;;;;5.43;2.60;;;18.50;82.20;;;;;;5118132;28;20158;-86
2023/09/21 05:04:52;;;;;;;4.57;2.90;;;18.50;85.30;;;;;;5114152;28;20185;-87
2023/09/21 05:07:19;;;;;;;4.87;2.43;;;18.60;88.40;;;;;;5114519;28;20180;-84
2023/09/21 05:09:45;;;;;;;3.00;2.40;;;18.60;89.50;;;;;;5101210;28;20186;-85
2023/09/21 05:12:12;;;;;;;7.40;3.40;;;18.70;90.40;;;;;;5105845;28;20177;-85
2023/09/21 05:14:38;;;;;;;6.60;2.77;;;18.70;91.90;;;;;;5112690;28;20229;-87
2023/09/21 05:17:05;;;;;;;6.70;2.77;;;18.80;92.50;;;;;;5114575;28;20176;-88
2023/09/21 05:19:33;;;;;;;6.83;2.90;;;18.80;93.00;;;;;;5119744;28;20162;-88
2023/09/21 05:22:04;;;;;;;5.63;2.50;;;18.90;93.00;;;;;;5120808;28;20164;-85
2023/09/21 05:24:30;;;;;;;4.03;2.50;;;18.90;93.00;;;;;;5129805;28;20160;-81
2023/09/21 05:26:56;;;;;;;5.97;2.90;;;18.80;93.70;;;;;;5113694;28;20204;-85
2023/09/21 05:29:23;;;;;;;6.43;2.90;;;18.80;92.90;;;;;;5096144;28;20175;-82
2023/09/21 05:31:49;;;;;;;4.60;2.80;;;18.70;93.50;;;;;;5095024;28;20175;-85
2023/09/21 05:34:16;;;;;;;4.30;2.57;;;18.70;93.50;;;;;;5092409;28;20217;-81
2023/09/21 05:36:45;;;;;;;5.13;2.40;;;18.70;93.20;;;;;;5098208;28;20307;-81
2023/09/21 05:39:11;;;;;;;4.30;2.50;;;18.70;93.70;;;;;;5099396;28;20176;-83
2023/09/21 05:41:39;;;;;;;5.33;3.00;;;18.70;94.10;;;;;;5093169;28;20650;-84
2023/09/21 05:44:08;;;;;;;5.00;3.10;;;18.70;94.30;;;;;;5095781;28;20193;-83
2023/09/21 05:46:38;;;;;;;4.80;2.93;;;18.70;95.70;;;;;;5095257;28;20175;-85
2023/09/21 05:49:07;;;;;;;5.00;2.93;;;18.60;96.40;;;;;;5093949;28;20254;-83
2023/09/21 05:51:35;;;;;;;4.27;2.70;;;18.60;97.40;;;;;;5098391;28;20266;-80
2023/09/21 05:54:01;;;;;;;5.00;2.80;;;18.60;99.20;;;;;;5114643;28;20191;-83
2023/09/21 05:56:27;;;;;;;5.63;3.27;;;18.60;99.90;;;;;;5121181;28;20178;-84
2023/09/21 05:58:53;;;;;;;6.13;3.00;;;18.50;99.90;;;;;;5117675;28;20178;-82
2023/09/21 06:01:19;;;;;;;4.93;2.63;;;18.50;99.90;;;;;;5114039;28;20229;-81
2023/09/21 06:03:44;;;;;;;5.10;2.93;;;18.50;99.90;;;;;;5108270;28;20245;-84
2023/09/21 06:06:10;;;;;;;5.00;2.73;;;18.50;99.90;;;;;;5098292;28;20186;-85
2023/09/21 06:08:38;;;;;;;6.27;3.23;;;18.40;99.90;;;;;;5102412;28;20171;-82
2023/09/21 06:11:04;;;;;;;4.10;3.17;;;18.50;99.90;;;;;;5113088;28;20169;-83
2023/09/21 06:13:31;;;;;;;4.87;2.80;;;18.40;99.90;;;;;;5098769;28;20171;-82
2023/09/21 06:15:57;;;;;;;6.07;3.03;;;18.40;99.90;;;;;;5101683;28;20628;-84
2023/09/21 06:18:23;;;;;;;4.40;3.13;;;18.60;99.90;;;;;;5095180;28;20195;-84
2023/09/21 06:20:49;;;;;;;4.17;1.77;;;18.60;99.90;;;;;;5094502;28;20274;-82
2023/09/21 06:23:17;;;;;;;3.10;1.60;;;18.10;89.70;;;;;;5096960;28;20242;-83
2023/09/21 06:25:43;;;;;;;2.93;1.70;;;17.60;94.20;;;;;;5095987;28;20193;-84
2023/09/21 06:28:10;;;;;;;2.57;1.57;;;17.20;97.90;;;;;;5096720;28;20163;-83
2023/09/21 06:30:37;;;;;;;4.40;1.60;;;16.90;99.90;;;;;;5096377;28;20178;-83
2023/09/21 06:33:03;;;;;;;4.23;1.57;;;16.70;99.90;;;;;;5094584;28;20217;-81
2023/09/21 06:35:29;;;;;;;3.50;1.60;;;16.60;99.90;;;;;;5095362;28;20205;-83
2023/09/21 06:37:55;;;;;;;4.03;1.83;;;16.60;99.90;;;;;;5094835;28;20178;-83
2023/09/21 06:40:26;;;;;;;3.10;1.60;;;16.60;99.90;;;;;;5095556;28;20236;-83
2023/09/21 06:42:52;;;;;;;5.37;1.50;;;16.70;99.90;;;;;;5094526;28;20164;-84
2023/09/21 06:45:19;;;;;;;3.57;1.70;;;16.70;99.90;;;;;;5094710;28;20232;-83
2023/09/21 06:47:47;;;;;;;5.00;1.87;;;16.60;99.90;;;;;;5097073;28;20174;-82
2023/09/21 06:50:14;;;;;;;4.73;1.70;;;16.60;99.90;;;;;;5094665;28;20177;-83
2023/09/21 06:52:41;;;;;;;3.60;1.63;;;16.50;99.90;;;;;;5095297;28;20200;-82
2023/09/21 06:55:07;;;;;;;4.30;1.63;;;16.60;99.90;;;;;;5095871;28;20349;-83
2023/09/21 06:57:34;;;;;;;4.73;2.27;;;16.60;99.90;;;;;;5095593;28;20263;-83
2023/09/21 07:00:01;;;;;;;5.13;2.30;;;16.60;99.90;;;;;;5095095;28;20215;-85
2023/09/21 07:02:27;;;;;;;6.33;2.20;;;16.60;99.90;;;;;;5096320;28;20170;-83
2023/09/21 07:04:54;;;;;;;4.83;2.10;;;16.70;99.90;;;;;;5095079;28;20179;-82
2023/09/21 07:07:21;;;;;;;3.40;2.37;;;16.90;99.90;;;;;;5097137;28;20181;-82
2023/09/21 07:09:46;;;;;;;3.93;2.10;;;17.00;99.90;;;;;;5095569;28;20700;-83
2023/09/21 07:12:12;;;;;;;4.37;2.67;;;17.00;99.90;;;;;;5095767;28;20183;-83
2023/09/21 07:14:39;;;;;;;4.23;2.60;;;16.80;99.90;;;;;;5094254;28;20281;-83
2023/09/21 07:17:05;;;;;;;4.97;2.37;;;16.70;99.90;;;;;;5094677;28;20187;-83
2023/09/21 07:19:31;;;;;;;4.67;2.10;;;16.80;99.90;;;;;;5094568;28;20197;-83
2023/09/21 07:21:58;;;;;;;3.70;2.13;;;16.90;99.90;;;;;;5096275;28;20555;-83
2023/09/21 07:24:24;;;;;;;5.43;2.20;;;17.20;99.90;;;;;;5094154;28;20174;-83
2023/09/21 07:26:50;;;;;;;4.73;2.60;;;17.10;99.90;;;;;;5094930;28;20541;-82
2023/09/21 07:29:17;;;;;;;3.63;2.50;;;17.20;99.90;;;;;;5095833;28;20177;-82
2023/09/21 07:31:43;;;;;;;4.43;2.50;;;17.40;99.90;;;;;;5094545;28;20260;-84
2023/09/21 07:34:09;;;;;;;3.53;2.00;;;17.20;99.90;;;;;;5094159;28;20274;-83
2023/09/21 07:36:36;;;;;;;5.23;1.90;;;17.10;99.90;;;;;;5095939;28;20289;-83
2023/09/21 07:39:03;;;;;;;5.70;2.40;;;17.20;99.90;;;;;;5094140;28;20194;-84
2023/09/21 07:41:29;;;;;;;5.37;2.00;;;17.30;99.90;;;;;;5094312;28;20210;-83
2023/09/21 07:44:08;;;;;;;3.90;2.00;;;17.40;99.90;;;;;;5095148;28;20159;-83
2023/09/21 07:46:37;;;;;;;3.83;1.80;;;17.50;98.10;;;;;;5093663;28;20180;-83
2023/09/21 07:49:04;;;;;;;4.50;1.80;;;17.50;96.50;;;;;;5096025;28;20228;-81
2023/09/21 07:51:34;;;;;;;4.30;2.13;;;17.50;95.50;;;;;;5095572;28;20677;-84
2023/09/21 07:54:02;;;;;;;5.23;2.27;;;17.60;94.00;;;;;;5095588;28;20191;-82
2023/09/21 07:56:31;;;;;;;6.30;2.10;;;17.60;93.00;;;;;;5094678;28;20255;-83
2023/09/21 07:58:57;;;;;;;4.37;2.40;;;17.60;93.40;;;;;;5094258;28;20542;-83
2023/09/21 08:01:26;;;;;;;5.30;2.20;;;17.60;94.30;;;;;;5095257;28;20167;-84
2023/09/21 08:03:54;;;;;;;3.27;2.37;;;17.60;95.00;;;;;;5095100;28;20171;-83
2023/09/21 08:06:22;;;;;;;4.17;2.27;;;17.70;95.00;;;;;;5094393;28;20191;-82
2023/09/21 08:08:52;;;;;;;4.20;2.67;;;17.70;95.40;;;;;;5093827;28;20615;-83
2023/09/21 08:11:18;;;;;;;5.03;2.87;;;17.90;94.30;;;;;;5093822;28;20209;-83
2023/09/21 08:13:44;;;;;;;6.50;2.70;;;18.00;94.20;;;;;;5093923;28;20176;-87
2023/09/21 08:16:09;;;;;;;5.93;2.80;;;18.20;92.70;;;;;;5092696;28;20742;-83
2023/09/21 08:18:36;;;;;;;3.90;2.57;;;18.30;90.70;;;;;;5095099;28;20636;-83
2023/09/21 08:21:06;;;;;;;6.87;2.57;;;18.30;88.90;;;;;;5094022;28;20679;-83
2023/09/21 08:23:32;;;;;;;4.63;2.43;;;18.20;87.40;;;;;;5099842;28;20238;-84
2023/09/21 08:25:58;;;;;;;5.50;2.53;;;18.20;87.80;;;;;;5102645;28;20184;-84
2023/09/21 08:28:25;;;;;;;5.70;2.70;;;18.20;87.20;;;;;;5098019;28;20180;-83
2023/09/21 08:30:52;;;;;;;6.50;3.07;;;18.30;89.30;;;;;;5097655;28;20180;-83
2023/09/21 08:33:17;;;;;;;5.33;2.80;;;18.40;90.10;;;;;;5097286;28;20252;-85
2023/09/21 08:35:43;;;;;;;7.30;3.20;;;18.50;89.40;;;;;;5097833;28;20219;-82
2023/09/21 08:38:11;;;;;;;7.23;3.40;;;18.60;88.40;;;;;;5083790;28;20197;-83
2023/09/21 08:40:38;;;;;;;5.23;3.23;;;18.60;89.90;;;;;;5102056;28;20221;-84
2023/09/21 08:43:04;;;;;;;4.40;3.13;;;18.70;90.50;;;;;;5100259;28;20169;-84
2023/09/21 08:45:30;;;;;;;5.90;2.30;;;18.80;94.70;;;;;;5100349;28;20204;-83
2023/09/21 08:47:56;;;;;;;4.27;2.30;;;18.80;97.30;;;;;;5098280;28;20183;-83
2023/09/21 08:50:28;;;;;;;3.07;2.00;;;18.70;99.90;;;;;;5095384;28;20177;-82
2023/09/21 08:52:54;;;;;;;5.23;2.60;;;18.70;99.90;;;;;;5103556;28;20186;-83
2023/09/21 08:55:24;;;;;;;5.00;2.60;;;18.70;99.90;;;;;;5108700;28;20211;-83
2023/09/21 08:57:53;;;;;;;4.87;2.50;;;18.70;99.90;;;;;;5107681;28;20187;-83
2023/09/21 09:00:21;;;;;;;5.70;2.47;;;18.70;99.90;;;;;;5100304;28;20191;-82
2023/09/21 09:02:49;;;;;;;4.77;2.23;;;18.80;99.90;;;;;;5098940;28;20179;-82
2023/09/21 09:05:18;;;;;;;3.83;2.43;;;18.90;99.90;;;;;;5107346;28;20173;-81
2023/09/21 09:07:45;;;;;;;4.63;2.43;;;18.90;99.90;;;;;;5096157;28;20612;-83
2023/09/21 09:10:12;;;;;;;3.37;2.40;;;19.00;99.90;;;;;;5107884;28;20187;-83
2023/09/21 09:12:39;;;;;;;2.93;2.03;;;19.10;99.90;;;;;;5109059;28;20172;-82
2023/09/21 09:15:08;;;;;;;3.00;2.20;;;19.10;99.90;;;;;;5094463;28;20286;-84
2023/09/21 09:17:35;;;;;;;4.03;2.07;;;19.00;99.90;;;;;;5092915;28;20199;-84
2023/09/21 09:20:03;;;;;;;4.43;1.90;;;19.10;99.90;;;;;;5093881;28;20164;-84
2023/09/21 09:22:34;;;;;;;4.63;2.47;;;19.00;99.90;;;;;;5094355;28;20168;-82
2023/09/21 09:25:11;;;;;;;4.30;2.23;;;19.00;99.90;;;;;;5092461;28;20216;-83
2023/09/21 09:27:41;;;;;;;4.47;2.50;;;19.00;99.90;;;;;;5095035;28;20187;-84
2023/09/21 09:30:11;;;;;;;4.60;2.27;;;19.00;99.90;;;;;;5097309;28;20224;-85
2023/09/21 09:32:41;;;;;;;4.63;2.60;;;19.00;99.90;;;;;;5097516;28;20708;-82
2023/09/21 09:35:13;;;;;;;4.63;2.40;;;18.90;99.90;;;;;;5096340;28;20235;-84
2023/09/21 09:37:39;;;;;;;4.80;2.07;;;18.90;99.90;;;;;;5096523;28;20186;-84
2023/09/21 09:43:02;;;;;;;5.03;2.10;;;18.80;99.90;;;;;;5092561;28;20181;-84
2023/09/21 09:45:30;;;;;;;5.00;2.40;;;18.90;99.90;;;;;;5099595;28;20173;-83
2023/09/21 09:48:01;;;;;;;4.43;2.30;;;18.80;99.90;;;;;;5098067;28;20179;-84
2023/09/21 09:50:36;;;;;;;3.17;1.97;;;18.80;99.90;;;;;;5096530;28;20190;-82
2023/09/21 09:53:05;;;;;;;2.40;1.70;;;18.90;99.90;;;;;;5096859;28;20307;-84
2023/09/21 09:55:32;;;;;;;3.43;1.50;;;18.50;98.60;;;;;;5098022;28;20230;-83
2023/09/21 09:58:01;;;;;;;2.40;1.00;;;18.50;98.40;;;;;;5096693;28;20164;-84
2023/09/21 10:00:27;;;;;;;2.10;1.30;;;18.30;98.50;;;;;;5096833;28;20207;-84
2023/09/21 10:02:58;;;;;;;3.07;1.40;;;18.10;97.60;;;;;;5096938;28;20167;-83
2023/09/21 10:05:28;;;;;;;2.87;1.50;;;18.00;99.80;;;;;;5097263;28;20307;-83
2023/09/21 10:07:59;;;;;;;2.03;1.40;;;17.90;99.90;;;;;;5097320;28;20217;-84
2023/09/21 10:10:28;;;;;;;3.03;1.17;;;17.90;99.90;;;;;;5098592;28;20195;-84
2023/09/21 10:12:57;;;;;;;3.37;2.37;;;18.00;97.90;;;;;;5096147;28;20262;-83
2023/09/21 10:15:26;;;;;;;3.77;2.30;;;18.00;95.10;;;;;;5096846;28;20206;-84
2023/09/21 10:17:57;;;;;;;4.73;2.00;;;18.00;94.00;;;;;;5095924;28;20617;-83
2023/09/21 10:20:27;;;;;;;6.50;4.07;;;17.80;92.10;;;;;;5095759;28;20197;-84
2023/09/21 10:22:54;;;;;;;2.57;1.87;;;17.80;90.40;;;;;;5096497;28;20630;-83
2023/09/21 10:25:47;;;;;;;3.87;1.87;;;17.80;85.20;;;;;;5096125;28;20177;-83
2023/09/21 10:28:29;;;;;;;2.93;1.40;;;17.90;89.40;;;;;;5096310;28;20534;-84
2023/09/21 10:30:55;;;;;;;2.03;1.50;;;18.00;79.40;;;;;;5109155;28;20255;-83
2023/09/21 10:33:25;;;;;;;1.83;1.00;;;18.00;77.20;;;;;;5109592;28;20195;-84
2023/09/21 10:35:52;;;;;;;2.30;1.00;;;17.90;76.40;;;;;;5100129;28;20215;-83
2023/09/21 10:38:18;;;;;;;2.10;1.20;;;17.90;74.00;;;;;;5097823;28;20205;-84
2023/09/21 10:40:47;;;;;;;2.57;1.10;;;17.80;73.50;;;;;;5095592;28;20178;-84
2023/09/21 10:43:41;;;;;;;1.20;0.90;;;17.60;81.30;;;;;;5095346;28;20202;-82
2023/09/21 10:46:16;;;;;;;2.17;1.20;;;17.50;86.00;;;;;;5096832;28;20233;-83
2023/09/21 10:48:58;;;;;;;3.37;1.30;;;17.50;85.30;;;;;;5096830;28;20187;-83
2023/09/21 10:51:25;;;;;;;1.83;0.90;;;17.40;91.80;;;;;;5097273;28;20169;-84
2023/09/21 10:53:54;;;;;;;1.80;0.90;;;17.40;90.90;;;;;;5095180;28;20263;-85
2023/09/21 10:56:23;;;;;;;1.67;0.80;;;17.50;91.60;;;;;;5096553;28;20214;-85
2023/09/21 10:58:50;;;;;;;1.87;1.20;;;17.70;91.00;;;;;;5094943;28;20170;-84
2023/09/21 11:01:16;;;;;;;2.53;1.43;;;17.80;89.90;;;;;;5095621;28;20182;-85
2023/09/21 11:03:42;;;;;;;3.30;1.77;;;18.00;87.60;;;;;;5095544;28;20203;-85
2023/09/21 11:06:09;;;;;;;2.47;1.60;;;17.90;87.60;;;;;;5096034;28;20593;-84
2023/09/21 11:08:35;;;;;;;3.70;1.60;;;18.00;88.10;;;;;;5096441;28;20171;-84
2023/09/21 11:11:02;;;;;;;2.63;1.50;;;18.00;83.70;;;;;;5097645;28;20168;-84
2023/09/21 11:13:29;;;;;;;4.70;1.53;;;18.00;81.30;;;;;;5095464;28;20176;-83
2023/09/21 11:15:55;;;;;;;2.33;1.33;;;18.00;83.00;;;;;;5095347;28;20215;-86
2023/09/21 11:18:22;;;;;;;5.77;1.60;;;18.00;84.40;;;;;;5097624;28;20176;-83
2023/09/21 11:20:49;;;;;;;4.50;1.47;;;18.10;81.80;;;;;;5098656;28;20226;-84
2023/09/21 11:23:19;;;;;;;3.63;1.67;;;17.90;85.70;;;;;;5098568;28;20539;-86
2023/09/21 11:25:47;;;;;;;3.70;1.47;;;18.00;91.40;;;;;;5096850;28;20265;-84
2023/09/21 11:28:13;;;;;;;5.00;1.77;;;17.90;90.80;;;;;;5095188;28;20168;-86
2023/09/21 11:30:42;;;;;;;3.73;1.67;;;18.00;92.90;;;;;;5095871;28;20187;-85
2023/09/21 11:33:09;;;;;;;6.23;2.07;;;18.10;92.90;;;;;;5095259;28;20634;-84
2023/09/21 11:35:34;;;;;;;5.43;1.83;;;18.20;92.60;;;;;;5096886;28;20202;-83
2023/09/21 11:38:02;;;;;;;5.10;2.07;;;18.50;92.60;;;;;;5096464;28;20197;-83
2023/09/21 11:40:28;;;;;;;3.70;2.10;;;18.60;90.20;;;;;;5096017;28;20221;-84
2023/09/21 11:42:59;;;;;;;5.10;1.60;;;18.50;88.00;;;;;;5096199;28;20175;-82
2023/09/21 11:45:26;;;;;;;4.47;1.73;;;18.50;87.30;;;;;;5096849;28;20168;-84
2023/09/21 11:47:57;;;;;;;4.23;2.17;;;18.70;83.80;;;;;;5095932;28;20600;-86
2023/09/21 11:50:27;;;;;;;6.40;2.90;;;18.70;80.40;;;;;;5096336;28;20652;-84
2023/09/21 11:52:56;;;;;;;6.77;2.20;;;18.70;77.90;;;;;;5095456;28;20192;-82
2023/09/21 11:55:27;;;;;;;6.70;2.70;;;18.60;79.60;;;;;;5094527;28;20679;-84
2023/09/21 11:58:05;;;;;;;4.33;2.47;;;18.70;83.20;;;;;;5104917;28;20179;-83
2023/09/21 12:00:51;;;;;;;2.80;1.70;;;18.80;81.90;;;;;;5106231;28;20266;-83
2023/09/21 12:03:20;;;;;;;3.70;1.70;;;18.60;84.30;;;;;;5096280;28;20642;-85
2023/09/21 12:05:47;;;;;;;4.93;1.60;;;18.60;90.10;;;;;;5093603;28;20203;-82
2023/09/21 12:08:14;;;;;;;3.37;1.60;;;18.50;88.80;;;;;;5095048;28;20625;-83
2023/09/21 12:10:47;;;;;;;6.13;1.70;;;18.70;86.50;;;;;;5093934;28;20163;-84
2023/09/21 12:13:14;;;;;;;3.57;1.43;;;18.80;82.40;;;;;;5097005;28;20184;-84
2023/09/21 12:15:40;;;;;;;3.90;1.60;;;19.00;76.50;;;;;;5094903;28;20218;-84
2023/09/21 12:18:12;;;;;;;3.23;1.70;;;19.00;75.50;;;;;;5094184;28;20686;-84
2023/09/21 12:20:49;;;;;;;3.87;1.60;;;19.10;71.80;;;;;;5096341;28;20183;-82
2023/09/21 12:23:16;;;;;;;4.93;2.40;;;19.30;66.40;;;;;;5102434;28;20171;-83
2023/09/21 12:25:42;;;;;;;4.30;2.30;;;19.20;57.50;;;;;;5097764;28;20620;-84
2023/09/21 12:28:11;;;;;;;4.70;2.10;;;19.00;60.30;;;;;;5094774;28;20231;-82
2023/09/21 12:30:41;;;;;;;4.50;1.70;;;19.20;60.90;;;;;;5095942;28;20255;-83
2023/09/21 12:33:07;;;;;;;4.27;1.90;;;19.30;58.80;;;;;;5095474;28;20187;-84
2023/09/21 12:35:33;;;;;;;2.73;1.73;;;19.00;57.40;;;;;;5094765;28;20289;-83
2023/09/21 12:37:59;;;;;;;4.57;2.03;;;18.90;59.90;;;;;;5096537;28;20268;-83
2023/09/21 12:40:25;;;;;;;4.97;1.90;;;19.00;60.70;;;;;;5094839;28;20210;-84
2023/09/21 12:42:52;;;;;;;3.17;1.53;;;18.80;67.20;;;;;;5094396;28;20619;-83
2023/09/21 12:45:17;;;;;;;3.77;1.90;;;19.00;67.20;;;;;;5093621;28;20171;-85
2023/09/21 12:47:44;;;;;;;2.53;1.10;;;19.10;65.80;;;;;;5094670;28;20651;-83
2023/09/21 12:50:12;;;;;;;2.27;1.33;;;19.10;57.90;;;;;;5095346;28;20190;-84
2023/09/21 12:52:40;;;;;;;1.87;1.00;;;19.30;55.00;;;;;;5094834;28;20191;-84
2023/09/21 12:55:06;;;;;;;1.40;0.80;;;19.30;47.00;;;;;;5096795;28;21053;-84
2023/09/21 12:57:41;;;;;;;1.77;0.90;;;19.20;38.60;;;;;;5097785;28;20203;-84
2023/09/21 13:00:18;;;;;;;0.93;0.70;;;19.10;28.70;;;;;;5095110;28;20172;-85
2023/09/21 13:02:45;;;;;;;1.90;1.00;;;18.90;13.70;;;;;;5094387;28;20172;-86